Station History

Weather Underground - logo

Station Historical Data
Daily Summary for December 27, 2017 Units:  English    Metric   Both
« Previous Day
Next Day »
Daily Weekly Monthly Yearly Custom
  High: Low: Average:
Temperature: 61.7 °F 34.4 °F 46.5 °F
Dew Point: 43.1 °F 31.8 °F 38 °F
Humidity: 92 % 47 % 74 %
Wind Speed: 3.5 mph 0.0 mph 0.4 mph
Wind Gust: 3.5 mph - -
Wind:- - WSW
Pressure: 30.35 in 30.25 in -
Precipitation: 0.00 in    
Historical Graphs
 
 
Tabular Data for December 27, 2017
Time Temperature Dew Point Pressure Wind Wind Speed Wind Gust Humidity Rainfall Rate (Hourly)
00:00 42.9 °F 37.5 °F 30.26 in Calm     81 % 0.00 in
00:05 42.8 °F 37.1 °F 30.26 in Calm     80 % 0.00 in
00:06 42.8 °F 37.1 °F 30.26 in Calm     80 % 0.00 in
00:07 42.8 °F 37.1 °F 30.26 in Calm     80 % 0.00 in
00:12 42.7 °F 37.3 °F 30.26 in Calm     81 % 0.00 in
00:13 42.7 °F 37.3 °F 30.26 in Calm     81 % 0.00 in
00:18 42.6 °F 37.2 °F 30.26 in Calm     81 % 0.00 in
00:23 42.2 °F 36.8 °F 30.26 in Calm     81 % 0.00 in
00:24 42.1 °F 36.7 °F 30.26 in Calm     81 % 0.00 in
00:29 41.4 °F 36.0 °F 30.26 in Calm     81 % 0.00 in
00:31 41.0 °F 35.9 °F 30.26 in Calm     82 % 0.00 in
00:36 39.9 °F 35.2 °F 30.26 in Calm     83 % 0.00 in
00:41 39.4 °F 35.0 °F 30.26 in Calm     84 % 0.00 in
00:46 39.1 °F 35.0 °F 30.26 in Calm     85 % 0.00 in
00:48 38.8 °F 34.7 °F 30.26 in Calm     85 % 0.00 in
00:53 38.5 °F 34.7 °F 30.26 in Calm     86 % 0.00 in
00:58 38.2 °F 34.4 °F 30.26 in Calm     86 % 0.00 in
00:59 38.2 °F 34.7 °F 30.26 in Calm     87 % 0.00 in
01:00 38.1 °F 34.6 °F 30.26 in Calm     87 % 0.00 in
01:05 37.9 °F 34.4 °F 30.26 in Calm     87 % 0.00 in
01:08 37.9 °F 34.4 °F 30.26 in Calm     87 % 0.00 in
01:11 37.9 °F 34.7 °F 30.26 in Calm     88 % 0.00 in
01:13 37.9 °F 34.7 °F 30.26 in Calm     88 % 0.00 in
01:17 37.8 °F 34.6 °F 30.26 in Calm     88 % 0.00 in
01:22 37.8 °F 34.6 °F 30.26 in Calm     88 % 0.00 in
01:23 37.8 °F 34.8 °F 30.27 in Calm     89 % 0.00 in
01:25 37.7 °F 34.5 °F 30.27 in Calm     88 % 0.00 in
01:28 37.7 °F 34.5 °F 30.27 in Calm     88 % 0.00 in
01:33 37.8 °F 34.8 °F 30.27 in Calm     89 % 0.00 in
01:34 37.7 °F 34.8 °F 30.27 in Calm     89 % 0.00 in
01:38 37.7 °F 34.8 °F 30.28 in Calm     89 % 0.00 in
01:43 37.8 °F 34.8 °F 30.28 in Calm     89 % 0.00 in
01:44 37.8 °F 34.8 °F 30.28 in Calm     89 % 0.00 in
01:49 37.6 °F 34.7 °F 30.28 in Calm     89 % 0.00 in
01:50 37.6 °F 34.7 °F 30.27 in Calm     89 % 0.00 in
01:56 37.5 °F 34.6 °F 30.28 in Calm     89 % 0.00 in
02:01 37.5 °F 34.6 °F 30.28 in Calm     89 % 0.00 in
02:03 37.4 °F 34.5 °F 30.28 in Calm     89 % 0.00 in
02:07 37.4 °F 34.5 °F 30.28 in Calm     89 % 0.00 in
02:12 37.5 °F 34.8 °F 30.29 in Calm     90 % 0.00 in
02:13 37.5 °F 34.8 °F 30.29 in Calm     90 % 0.00 in
02:18 37.7 °F 35.0 °F 30.29 in Calm     90 % 0.00 in
02:21 37.8 °F 35.1 °F 30.29 in Calm     90 % 0.00 in
02:26 38.0 °F 35.3 °F 30.29 in Calm     90 % 0.00 in
02:27 38.1 °F 35.4 °F 30.29 in Calm     90 % 0.00 in
02:32 38.5 °F 35.5 °F 30.29 in Calm     89 % 0.00 in
02:33 38.5 °F 35.5 °F 30.29 in Calm     89 % 0.00 in
02:38 38.8 °F 35.6 °F 30.29 in Calm     88 % 0.00 in
02:39 38.9 °F 35.6 °F 30.29 in Calm     88 % 0.00 in
02:41 38.9 °F 35.6 °F 30.29 in Calm     88 % 0.00 in
02:46 39.0 °F 35.7 °F 30.29 in Calm     88 % 0.00 in
02:51 38.9 °F 35.4 °F 30.29 in Calm     87 % 0.00 in
02:56 38.2 °F 34.7 °F 30.29 in Calm     87 % 0.00 in
02:59 37.9 °F 34.4 °F 30.28 in Calm     87 % 0.00 in
03:03 37.6 °F 34.1 °F 30.28 in Calm     87 % 0.00 in
03:08 37.2 °F 33.7 °F 30.28 in Calm     87 % 0.00 in
03:09 37.1 °F 33.9 °F 30.28 in Calm     88 % 0.00 in
03:14 36.8 °F 33.6 °F 30.28 in Calm     88 % 0.00 in
03:18 36.7 °F 33.5 °F 30.28 in Calm     88 % 0.00 in
03:23 36.5 °F 33.6 °F 30.28 in Calm     89 % 0.00 in
03:28 36.1 °F 33.2 °F 30.28 in Calm     89 % 0.00 in
03:29 36.1 °F 33.2 °F 30.28 in Calm     89 % 0.00 in
03:30 36.1 °F 33.2 °F 30.27 in Calm     89 % 0.00 in
03:32 36.0 °F 33.1 °F 30.27 in Calm     89 % 0.00 in
03:35 36.0 °F 33.4 °F 30.27 in Calm     90 % 0.00 in
03:40 36.0 °F 33.4 °F 30.27 in Calm     90 % 0.00 in
03:41 36.0 °F 33.4 °F 30.27 in Calm     90 % 0.00 in
03:46 36.0 °F 33.6 °F 30.27 in Calm     91 % 0.00 in
03:47 36.1 °F 33.7 °F 30.28 in Calm     91 % 0.00 in
03:53 36.2 °F 33.8 °F 30.28 in Calm     91 % 0.00 in
03:56 36.2 °F 33.8 °F 30.28 in Calm     91 % 0.00 in
04:00 36.1 °F 33.7 °F 30.28 in Calm     91 % 0.00 in
04:05 36.3 °F 33.6 °F 30.28 in Calm     90 % 0.00 in
04:06 36.3 °F 33.6 °F 30.27 in Calm     90 % 0.00 in
04:11 36.4 °F 33.7 °F 30.28 in Calm     90 % 0.00 in
04:14 36.4 °F 33.7 °F 30.28 in Calm     90 % 0.00 in
04:19 36.4 °F 33.7 °F 30.28 in Calm     90 % 0.00 in
04:24 36.3 °F 33.4 °F 30.27 in Calm     89 % 0.00 in
04:27 36.2 °F 33.3 °F 30.27 in Calm     89 % 0.00 in
04:30 36.1 °F 33.2 °F 30.27 in Calm     89 % 0.00 in
04:33 36.0 °F 33.1 °F 30.27 in Calm     89 % 0.00 in
04:38 36.0 °F 33.1 °F 30.27 in Calm     89 % 0.00 in
04:39 35.9 °F 33.0 °F 30.27 in Calm     89 % 0.00 in
04:44 35.8 °F 32.9 °F 30.27 in Calm     89 % 0.00 in
04:49 35.7 °F 32.8 °F 30.28 in Calm     89 % 0.00 in
04:50 35.6 °F 32.7 °F 30.28 in Calm     89 % 0.00 in
04:54 35.7 °F 32.8 °F 30.27 in Calm     89 % 0.00 in
04:56 35.7 °F 32.8 °F 30.27 in Calm     89 % 0.00 in
05:01 35.7 °F 33.1 °F 30.28 in Calm     90 % 0.00 in
05:06 36.0 °F 33.4 °F 30.28 in NNE 1.2 mph   90 % 0.00 in
05:08 36.0 °F 33.4 °F 30.28 in Calm     90 % 0.00 in
05:11 36.1 °F 33.2 °F 30.28 in Calm     89 % 0.00 in
05:13 36.1 °F 33.2 °F 30.28 in Calm     89 % 0.00 in
05:16 36.1 °F 33.5 °F 30.28 in Calm     90 % 0.00 in
05:20 36.1 °F 33.5 °F 30.28 in Calm     90 % 0.00 in
05:23 35.9 °F 33.3 °F 30.28 in Calm     90 % 0.00 in
05:26 35.7 °F 33.1 °F 30.28 in Calm     90 % 0.00 in
05:29 35.6 °F 33.0 °F 30.28 in Calm     90 % 0.00 in
05:33 35.6 °F 33.0 °F 30.28 in Calm     90 % 0.00 in
05:35 35.6 °F 33.0 °F 30.28 in Calm     90 % 0.00 in
05:40 35.8 °F 33.2 °F 30.28 in Calm     90 % 0.00 in
05:45 35.8 °F 33.2 °F 30.29 in Calm     90 % 0.00 in
05:49 35.9 °F 33.3 °F 30.29 in Calm     90 % 0.00 in
05:51 36.0 °F 33.4 °F 30.29 in Calm     90 % 0.00 in
05:56 36.0 °F 33.1 °F 30.29 in Calm     89 % 0.00 in
06:01 35.8 °F 32.9 °F 30.29 in Calm     89 % 0.00 in
06:06 35.4 °F 32.5 °F 30.30 in NNE 1.2 mph   89 % 0.00 in
06:08 35.2 °F 32.3 °F 30.30 in Calm     89 % 0.00 in
06:13 34.8 °F 31.9 °F 30.30 in Calm     89 % 0.00 in
06:15 34.8 °F 32.2 °F 30.30 in Calm     90 % 0.00 in
06:20 34.6 °F 32.0 °F 30.30 in Calm     90 % 0.00 in
06:25 34.6 °F 32.2 °F 30.30 in Calm     91 % 0.00 in
06:30 34.8 °F 32.4 °F 30.30 in Calm     91 % 0.00 in
06:34 34.8 °F 32.4 °F 30.30 in Calm     91 % 0.00 in
06:39 34.9 °F 32.8 °F 30.30 in Calm     92 % 0.00 in
06:40 35.0 °F 32.9 °F 30.30 in Calm     92 % 0.00 in
06:45 35.3 °F 33.2 °F 30.31 in Calm     92 % 0.00 in
06:50 35.5 °F 33.1 °F 30.31 in Calm     91 % 0.00 in
06:51 35.5 °F 33.1 °F 30.31 in Calm     91 % 0.00 in
06:56 35.5 °F 33.1 °F 30.31 in Calm     91 % 0.00 in
06:57 35.5 °F 33.1 °F 30.31 in Calm     91 % 0.00 in
07:02 35.4 °F 32.8 °F 30.31 in Calm     90 % 0.00 in
07:04 35.3 °F 32.7 °F 30.31 in Calm     90 % 0.00 in
07:05 35.3 °F 32.7 °F 30.31 in Calm     90 % 0.00 in
07:10 35.2 °F 32.8 °F 30.31 in Calm     91 % 0.00 in
07:15 35.1 °F 32.7 °F 30.31 in Calm     91 % 0.00 in
07:20 34.9 °F 32.3 °F 30.31 in Calm     90 % 0.00 in
07:22 34.8 °F 32.2 °F 30.31 in Calm     90 % 0.00 in
07:27 34.6 °F 32.0 °F 30.31 in Calm     90 % 0.00 in
07:28 34.5 °F 31.9 °F 30.31 in Calm     90 % 0.00 in
07:29 34.4 °F 31.8 °F 30.31 in Calm     90 % 0.00 in
07:34 34.5 °F 32.1 °F 30.31 in Calm     91 % 0.00 in
07:35 34.5 °F 32.1 °F 30.31 in Calm     91 % 0.00 in
07:38 34.7 °F 32.3 °F 30.31 in Calm     91 % 0.00 in
07:43 34.9 °F 32.5 °F 30.31 in Calm     91 % 0.00 in
07:44 34.9 °F 32.8 °F 30.31 in Calm     92 % 0.00 in
07:47 35.1 °F 33.0 °F 30.31 in Calm     92 % 0.00 in
07:49 35.3 °F 33.2 °F 30.31 in Calm     92 % 0.00 in
07:54 35.6 °F 33.5 °F 30.31 in Calm     92 % 0.00 in
07:56 35.7 °F 33.6 °F 30.31 in Calm     92 % 0.00 in
08:01 36.3 °F 34.2 °F 30.32 in Calm     92 % 0.00 in
08:03 36.6 °F 34.5 °F 30.32 in Calm     92 % 0.00 in
08:08 37.2 °F 34.8 °F 30.32 in Calm     91 % 0.00 in
08:13 38.3 °F 35.9 °F 30.32 in Calm     91 % 0.00 in
08:14 38.4 °F 36.0 °F 30.31 in Calm     91 % 0.00 in
08:17 38.9 °F 36.2 °F 30.32 in Calm     90 % 0.00 in
08:19 39.5 °F 36.5 °F 30.32 in Calm     89 % 0.00 in
08:24 40.4 °F 37.1 °F 30.32 in Calm     88 % 0.00 in
08:26 40.9 °F 37.6 °F 30.32 in Calm     88 % 0.00 in
08:31 41.9 °F 37.4 °F 30.32 in Calm     84 % 0.00 in
08:36 42.0 °F 37.5 °F 30.33 in Calm     84 % 0.00 in
08:41 42.8 °F 38.6 °F 30.33 in Calm     85 % 0.00 in
08:46 43.6 °F 38.8 °F 30.33 in Calm     83 % 0.00 in
08:48 43.8 °F 39.0 °F 30.33 in Calm     83 % 0.00 in
08:53 44.5 °F 39.7 °F 30.34 in Calm     83 % 0.00 in
08:55 44.8 °F 39.6 °F 30.34 in Calm     82 % 0.00 in
09:00 45.5 °F 39.0 °F 30.34 in NNE 1.2 mph   78 % 0.00 in
09:05 46.1 °F 39.3 °F 30.34 in Calm     77 % 0.00 in
09:07 46.2 °F 39.1 °F 30.34 in Calm     76 % 0.00 in
09:11 46.7 °F 39.5 °F 30.35 in Calm     76 % 0.00 in
09:13 47.0 °F 39.5 °F 30.34 in Calm     75 % 0.00 in
09:18 48.2 °F 39.9 °F 30.34 in Calm     73 % 0.00 in
09:19 48.5 °F 40.2 °F 30.34 in NE 1.0 mph   73 % 0.00 in
09:25 49.4 °F 40.0 °F 30.34 in East 1.2 mph 1.2 mph 70 % 0.00 in
09:26 49.5 °F 40.1 °F 30.34 in Calm     70 % 0.00 in
09:31 50.0 °F 40.2 °F 30.34 in ESE 1.2 mph   69 % 0.00 in
09:35 50.4 °F 40.6 °F 30.34 in Calm     69 % 0.00 in
09:36 50.5 °F 40.7 °F 30.34 in Calm     69 % 0.00 in
09:41 51.0 °F 40.0 °F 30.34 in Calm     66 % 0.00 in
09:44 50.9 °F 39.9 °F 30.35 in Calm     66 % 0.00 in
09:49 50.8 °F 40.2 °F 30.35 in Calm     67 % 0.00 in
09:50 50.9 °F 40.3 °F 30.35 in Calm     67 % 0.00 in
09:55 51.2 °F 39.8 °F 30.34 in NW 1.2 mph   65 % 0.00 in
09:56 51.3 °F 39.9 °F 30.35 in Calm     65 % 0.00 in
10:00 51.7 °F 39.9 °F 30.35 in Calm     64 % 0.00 in
10:03 52.1 °F 40.3 °F 30.35 in Calm     64 % 0.00 in
10:08 52.2 °F 40.0 °F 30.35 in Calm     63 % 0.00 in
10:09 52.2 °F 40.0 °F 30.35 in SW 1.2 mph   63 % 0.00 in
10:14 52.8 °F 39.7 °F 30.35 in West 1.2 mph 1.2 mph 61 % 0.00 in
10:16 52.7 °F 39.6 °F 30.34 in Calm     61 % 0.00 in
10:21 52.6 °F 39.9 °F 30.34 in Calm     62 % 0.00 in
10:26 52.9 °F 39.4 °F 30.34 in Calm     60 % 0.00 in
10:27 53.0 °F 39.5 °F 30.34 in NW 1.2 mph 1.2 mph 60 % 0.00 in
10:32 53.6 °F 40.0 °F 30.34 in Calm     60 % 0.00 in
10:37 54.1 °F 40.5 °F 30.34 in Calm     60 % 0.00 in
10:42 54.2 °F 39.3 °F 30.33 in West 2.3 mph   57 % 0.00 in
10:48 54.7 °F 40.6 °F 30.33 in Calm     59 % 0.00 in
10:49 54.9 °F 40.8 °F 30.33 in Calm     59 % 0.00 in
10:54 55.0 °F 40.0 °F 30.33 in WNW 1.2 mph 1.2 mph 57 % 0.00 in
10:59 55.1 °F 40.1 °F 30.33 in Calm     57 % 0.00 in
11:03 55.5 °F 40.0 °F 30.33 in Calm     56 % 0.00 in
11:08 56.3 °F 40.8 °F 30.33 in SE 2.3 mph 2.3 mph 56 % 0.00 in
11:12 56.6 °F 41.1 °F 30.32 in Calm     56 % 0.00 in
11:17 56.6 °F 40.6 °F 30.32 in Calm     55 % 0.00 in
11:22 56.5 °F 40.5 °F 30.32 in SE 1.2 mph 1.2 mph 55 % 0.00 in
11:27 56.9 °F 39.9 °F 30.32 in NW 2.3 mph 2.3 mph 53 % 0.00 in
11:29 57.0 °F 40.0 °F 30.32 in Calm     53 % 0.00 in
11:34 56.9 °F 39.9 °F 30.32 in South 3.0 mph 3.0 mph 53 % 0.00 in
11:39 57.6 °F 41.1 °F 30.31 in South 2.3 mph 2.3 mph 54 % 0.00 in
11:40 57.6 °F 41.1 °F 30.31 in SSE 1.2 mph 1.2 mph 54 % 0.00 in
11:45 57.8 °F 41.3 °F 30.31 in South 1.2 mph 1.2 mph 54 % 0.00 in
11:50 58.4 °F 42.3 °F 30.31 in SSE 1.2 mph   55 % 0.00 in
11:51 58.4 °F 42.3 °F 30.31 in Calm     55 % 0.00 in
11:53 58.5 °F 41.4 °F 30.31 in SSE 1.2 mph 1.2 mph 53 % 0.00 in
11:57 58.5 °F 42.4 °F 30.31 in Calm     55 % 0.00 in
12:02 58.5 °F 41.4 °F 30.30 in SSW 1.2 mph 1.2 mph 53 % 0.00 in
12:07 58.5 °F 41.4 °F 30.30 in SE 2.3 mph 2.3 mph 53 % 0.00 in
12:12 58.7 °F 41.6 °F 30.30 in NNW 2.3 mph 2.3 mph 53 % 0.00 in
12:13 58.7 °F 41.1 °F 30.30 in WNW 1.2 mph 1.2 mph 52 % 0.00 in
12:18 58.8 °F 41.2 °F 30.29 in NW 2.3 mph 2.3 mph 52 % 0.00 in
12:19 58.7 °F 41.1 °F 30.29 in NW 1.2 mph 1.2 mph 52 % 0.00 in
12:21 58.7 °F 41.1 °F 30.29 in NW 1.2 mph 1.2 mph 52 % 0.00 in
12:26 58.9 °F 41.8 °F 30.29 in West 1.2 mph 1.2 mph 53 % 0.00 in
12:27 59.0 °F 42.4 °F 30.29 in West 2.3 mph 2.3 mph 54 % 0.00 in
12:32 59.0 °F 41.9 °F 30.28 in NW 2.3 mph 2.3 mph 53 % 0.00 in
12:36 59.1 °F 42.0 °F 30.28 in NNE 2.0 mph 2.0 mph 53 % 0.00 in
12:41 59.0 °F 41.4 °F 30.28 in WNW 2.3 mph 2.3 mph 52 % 0.00 in
12:46 58.8 °F 41.2 °F 30.28 in West 1.2 mph 1.2 mph 52 % 0.00 in
12:50 59.0 °F 42.4 °F 30.28 in NNW 1.0 mph 1.0 mph 54 % 0.00 in
12:51 59.2 °F 42.6 °F 30.27 in WNW 1.2 mph 1.2 mph 54 % 0.00 in
12:56 59.5 °F 41.9 °F 30.27 in SSW 1.2 mph 1.2 mph 52 % 0.00 in
12:57 59.5 °F 41.9 °F 30.27 in SSW 1.2 mph 1.2 mph 52 % 0.00 in
12:58 59.6 °F 41.9 °F 30.27 in Calm   0.1 mph 52 % 0.00 in
13:04 60.0 °F 42.8 °F 30.26 in West 1.0 mph   53 % 0.00 in
13:06 60.0 °F 41.3 °F 30.26 in WNW 2.3 mph 2.3 mph 50 % 0.00 in
13:11 59.8 °F 42.1 °F 30.26 in NW 2.0 mph 2.0 mph 52 % 0.00 in
13:16 60.0 °F 41.8 °F 30.26 in NW 1.2 mph   51 % 0.00 in
13:17 59.9 °F 41.7 °F 30.26 in NW 1.2 mph   51 % 0.00 in
13:22 60.0 °F 41.8 °F 30.26 in SE 1.2 mph 1.2 mph 51 % 0.00 in
13:27 60.3 °F 42.6 °F 30.25 in NE 1.2 mph 1.2 mph 52 % 0.00 in
13:28 60.3 °F 42.1 °F 30.25 in NE 1.2 mph 1.2 mph 51 % 0.00 in
13:32 60.5 °F 42.8 °F 30.25 in South 1.2 mph 1.2 mph 52 % 0.00 in
13:37 60.8 °F 43.1 °F 30.25 in Calm     52 % 0.00 in
13:38 60.8 °F 43.1 °F 30.25 in SE 1.2 mph   52 % 0.00 in
13:43 61.0 °F 42.2 °F 30.25 in Calm     50 % 0.00 in
13:44 61.0 °F 42.7 °F 30.25 in Calm     51 % 0.00 in
13:49 61.2 °F 42.4 °F 30.25 in Calm     50 % 0.00 in
13:50 61.3 °F 43.0 °F 30.25 in Calm     51 % 0.00 in
13:53 61.5 °F 42.7 °F 30.25 in SSE 1.2 mph   50 % 0.00 in
13:58 61.7 °F 42.3 °F 30.25 in Calm     49 % 0.00 in
14:00 61.7 °F 41.8 °F 30.25 in NW 1.2 mph 1.2 mph 48 % 0.00 in
14:03 61.4 °F 41.5 °F 30.25 in WNW 2.3 mph 2.3 mph 48 % 0.00 in
14:08 61.1 °F 40.7 °F 30.26 in NW 1.2 mph   47 % 0.00 in
14:09 61.1 °F 41.2 °F 30.26 in Calm     48 % 0.00 in
14:14 61.0 °F 41.7 °F 30.26 in NW 3.5 mph 3.5 mph 49 % 0.00 in
14:19 60.9 °F 41.6 °F 30.26 in NW 1.2 mph 1.2 mph 49 % 0.00 in
14:21 60.9 °F 41.6 °F 30.26 in NW 2.3 mph 2.3 mph 49 % 0.00 in
14:26 60.7 °F 41.4 °F 30.26 in NW 2.3 mph 2.3 mph 49 % 0.00 in
14:29 60.6 °F 41.3 °F 30.26 in WNW 1.0 mph   49 % 0.00 in
14:32 60.7 °F 41.9 °F 30.26 in WNW 1.2 mph 1.2 mph 50 % 0.00 in
14:36 60.9 °F 41.6 °F 30.26 in NW 2.3 mph 2.3 mph 49 % 0.00 in
14:41 61.0 °F 41.2 °F 30.26 in NW 2.3 mph 2.3 mph 48 % 0.00 in
14:42 61.1 °F 41.8 °F 30.26 in WNW 2.3 mph 2.3 mph 49 % 0.00 in
14:45 61.1 °F 41.2 °F 30.26 in WNW 1.2 mph 1.2 mph 48 % 0.00 in
14:50 61.1 °F 40.7 °F 30.27 in NW 1.2 mph 1.2 mph 47 % 0.00 in
14:55 61.1 °F 41.2 °F 30.27 in NW 2.3 mph 2.3 mph 48 % 0.00 in
14:56 61.1 °F 41.2 °F 30.27 in NW 2.3 mph 2.3 mph 48 % 0.00 in
15:01 61.1 °F 41.2 °F 30.27 in NW 2.0 mph 2.0 mph 48 % 0.00 in
15:02 61.1 °F 40.7 °F 30.27 in NW 2.3 mph 2.3 mph 47 % 0.00 in
15:07 61.1 °F 40.7 °F 30.27 in NW 2.3 mph 2.3 mph 47 % 0.00 in
15:08 61.1 °F 40.7 °F 30.27 in WNW 3.0 mph 3.0 mph 47 % 0.00 in
15:09 61.1 °F 40.7 °F 30.27 in NW 3.5 mph 3.5 mph 47 % 0.00 in
15:11 61.1 °F 40.7 °F 30.27 in NW 3.5 mph 3.5 mph 47 % 0.00 in
15:14 61.0 °F 41.2 °F 30.27 in NW 2.3 mph 2.3 mph 48 % 0.00 in
15:19 60.9 °F 41.6 °F 30.27 in WNW 2.3 mph 2.3 mph 49 % 0.00 in
15:20 60.9 °F 41.6 °F 30.27 in NW 1.2 mph 1.2 mph 49 % 0.00 in
15:23 60.9 °F 41.1 °F 30.27 in NW 3.5 mph 3.5 mph 48 % 0.00 in
15:27 60.8 °F 41.0 °F 30.27 in NW 3.5 mph 3.5 mph 48 % 0.00 in
15:29 60.8 °F 41.0 °F 30.27 in NW 2.3 mph 2.3 mph 48 % 0.00 in
15:33 60.7 °F 41.4 °F 30.27 in NW 2.3 mph 2.3 mph 49 % 0.00 in
15:35 60.7 °F 41.9 °F 30.27 in NW 1.2 mph 1.2 mph 50 % 0.00 in
15:38 60.6 °F 41.3 °F 30.27 in NW 1.2 mph 1.2 mph 49 % 0.00 in
15:43 60.4 °F 41.1 °F 30.26 in NW 1.2 mph 1.2 mph 49 % 0.00 in
15:44 60.4 °F 41.7 °F 30.26 in NW 1.2 mph   50 % 0.00 in
15:49 60.2 °F 42.0 °F 30.26 in Calm     51 % 0.00 in
15:51 60.1 °F 41.4 °F 30.26 in Calm     50 % 0.00 in
15:53 60.1 °F 41.4 °F 30.26 in Calm     50 % 0.00 in
15:56 59.9 °F 41.2 °F 30.26 in Calm     50 % 0.00 in
16:01 59.7 °F 41.0 °F 30.26 in Calm     50 % 0.00 in
16:03 59.7 °F 41.0 °F 30.25 in Calm     50 % 0.00 in
16:08 59.5 °F 41.3 °F 30.26 in Calm     51 % 0.00 in
16:14 59.1 °F 42.0 °F 30.26 in Calm     53 % 0.00 in
16:15 58.9 °F 41.8 °F 30.26 in Calm     53 % 0.00 in
16:20 58.5 °F 41.9 °F 30.26 in Calm     54 % 0.00 in
16:21 58.4 °F 41.8 °F 30.26 in Calm     54 % 0.00 in
16:26 58.0 °F 41.9 °F 30.26 in Calm     55 % 0.00 in
16:27 57.9 °F 41.8 °F 30.26 in Calm     55 % 0.00 in
16:29 57.8 °F 42.2 °F 30.26 in Calm     56 % 0.00 in
16:33 57.2 °F 41.6 °F 30.26 in Calm     56 % 0.00 in
16:38 56.7 °F 41.6 °F 30.25 in Calm     57 % 0.00 in
16:39 56.7 °F 41.6 °F 30.25 in Calm     57 % 0.00 in
16:44 55.8 °F 41.7 °F 30.26 in Calm     59 % 0.00 in
16:48 55.3 °F 41.6 °F 30.26 in Calm     60 % 0.00 in
16:53 54.7 °F 41.1 °F 30.26 in Calm     60 % 0.00 in
16:58 54.5 °F 41.3 °F 30.25 in Calm     61 % 0.00 in
17:03 54.0 °F 41.3 °F 30.25 in Calm     62 % 0.00 in
17:04 53.9 °F 41.2 °F 30.25 in Calm     62 % 0.00 in
17:09 53.3 °F 41.4 °F 30.26 in Calm     64 % 0.00 in
17:10 53.3 °F 41.4 °F 30.25 in Calm     64 % 0.00 in
17:17 52.5 °F 41.1 °F 30.25 in Calm     65 % 0.00 in
17:20 52.2 °F 42.0 °F 30.25 in Calm     68 % 0.00 in
17:22 52.0 °F 42.5 °F 30.25 in Calm     70 % 0.00 in
17:27 51.6 °F 42.1 °F 30.25 in Calm     70 % 0.00 in
17:28 51.7 °F 42.2 °F 30.25 in Calm     70 % 0.00 in
17:29 51.6 °F 42.1 °F 30.25 in Calm     70 % 0.00 in
17:34 51.4 °F 41.6 °F 30.25 in Calm     69 % 0.00 in
17:35 51.3 °F 41.5 °F 30.25 in Calm     69 % 0.00 in
17:40 50.9 °F 41.8 °F 30.25 in Calm     71 % 0.00 in
17:45 50.3 °F 41.3 °F 30.26 in Calm     71 % 0.00 in
17:46 50.3 °F 41.3 °F 30.26 in Calm     71 % 0.00 in
17:47 50.2 °F 41.2 °F 30.26 in Calm     71 % 0.00 in
17:52 49.8 °F 41.1 °F 30.26 in Calm     72 % 0.00 in
17:55 49.6 °F 40.9 °F 30.26 in Calm     72 % 0.00 in
17:58 49.3 °F 41.0 °F 30.26 in Calm     73 % 0.00 in
18:01 49.1 °F 41.2 °F 30.26 in Calm     74 % 0.00 in
18:06 49.0 °F 41.4 °F 30.25 in Calm     75 % 0.00 in
18:07 49.0 °F 41.4 °F 30.25 in Calm     75 % 0.00 in
18:12 49.1 °F 41.2 °F 30.26 in Calm     74 % 0.00 in
18:13 49.0 °F 41.4 °F 30.26 in Calm     75 % 0.00 in
18:18 48.4 °F 40.8 °F 30.26 in Calm     75 % 0.00 in
18:19 48.4 °F 40.8 °F 30.26 in Calm     75 % 0.00 in
18:24 48.0 °F 40.8 °F 30.26 in Calm     76 % 0.00 in
18:25 47.9 °F 40.7 °F 30.26 in Calm     76 % 0.00 in
18:30 47.7 °F 40.5 °F 30.27 in Calm     76 % 0.00 in
18:31 47.6 °F 40.7 °F 30.27 in Calm     77 % 0.00 in
18:36 47.6 °F 40.7 °F 30.27 in Calm     77 % 0.00 in
18:38 47.7 °F 40.8 °F 30.27 in Calm     77 % 0.00 in
18:43 47.9 °F 40.7 °F 30.27 in Calm     76 % 0.00 in
18:46 47.7 °F 40.5 °F 30.27 in Calm     76 % 0.00 in
18:51 47.4 °F 40.6 °F 30.27 in Calm     77 % 0.00 in
18:54 47.4 °F 40.6 °F 30.27 in Calm     77 % 0.00 in
18:55 47.4 °F 40.6 °F 30.27 in Calm     77 % 0.00 in
18:59 47.4 °F 40.6 °F 30.27 in Calm     77 % 0.00 in
19:04 47.3 °F 40.5 °F 30.27 in Calm     77 % 0.00 in
19:06 47.2 °F 40.4 °F 30.27 in Calm     77 % 0.00 in
19:11 47.1 °F 39.9 °F 30.28 in Calm     76 % 0.00 in
19:17 46.9 °F 39.7 °F 30.28 in Calm     76 % 0.00 in
19:19 46.8 °F 39.6 °F 30.28 in Calm     76 % 0.00 in
19:22 46.6 °F 39.8 °F 30.28 in Calm     77 % 0.00 in
19:27 46.8 °F 40.0 °F 30.28 in Calm     77 % 0.00 in
19:29 47.0 °F 40.2 °F 30.28 in Calm     77 % 0.00 in
19:34 47.1 °F 39.9 °F 30.28 in Calm     76 % 0.00 in
19:35 47.0 °F 39.8 °F 30.28 in Calm     76 % 0.00 in
19:40 46.9 °F 39.7 °F 30.28 in Calm     76 % 0.00 in
19:41 46.9 °F 39.7 °F 30.28 in Calm     76 % 0.00 in
19:47 47.0 °F 39.8 °F 30.28 in Calm     76 % 0.00 in
19:50 46.9 °F 39.7 °F 30.28 in Calm     76 % 0.00 in
19:54 46.7 °F 39.5 °F 30.28 in Calm     76 % 0.00 in
19:58 46.4 °F 39.2 °F 30.28 in Calm     76 % 0.00 in
20:02 46.0 °F 39.2 °F 30.29 in Calm     77 % 0.00 in
20:07 45.6 °F 39.1 °F 30.28 in Calm     78 % 0.00 in
20:08 45.7 °F 39.2 °F 30.28 in Calm     78 % 0.00 in
20:13 46.1 °F 39.6 °F 30.28 in Calm     78 % 0.00 in
20:18 46.9 °F 39.7 °F 30.27 in East 1.2 mph 1.2 mph 76 % 0.00 in
20:19 47.0 °F 39.8 °F 30.27 in East 1.2 mph 1.2 mph 76 % 0.00 in
20:23 47.3 °F 39.8 °F 30.28 in Calm     75 % 0.00 in
20:24 47.3 °F 39.8 °F 30.28 in Calm     75 % 0.00 in
20:29 47.3 °F 39.8 °F 30.28 in Calm     75 % 0.00 in
20:30 47.3 °F 39.8 °F 30.28 in Calm     75 % 0.00 in
20:35 46.8 °F 39.3 °F 30.28 in Calm     75 % 0.00 in
20:39 46.2 °F 39.1 °F 30.28 in Calm     76 % 0.00 in
20:40 46.1 °F 39.0 °F 30.28 in Calm     76 % 0.00 in
20:45 45.6 °F 38.8 °F 30.27 in Calm     77 % 0.00 in
20:47 45.5 °F 39.0 °F 30.27 in Calm     78 % 0.00 in
20:52 44.8 °F 38.7 °F 30.28 in Calm     79 % 0.00 in
20:53 44.7 °F 38.6 °F 30.28 in Calm     79 % 0.00 in
20:57 44.3 °F 38.5 °F 30.28 in Calm     80 % 0.00 in
21:00 44.0 °F 38.2 °F 30.28 in Calm     80 % 0.00 in
21:04 43.6 °F 37.8 °F 30.28 in Calm     80 % 0.00 in
21:09 43.3 °F 37.9 °F 30.28 in Calm     81 % 0.00 in
21:13 43.3 °F 37.9 °F 30.28 in Calm     81 % 0.00 in
21:18 43.4 °F 38.3 °F 30.28 in Calm     82 % 0.00 in
21:20 43.5 °F 38.4 °F 30.28 in Calm     82 % 0.00 in
21:23 43.7 °F 38.3 °F 30.28 in Calm     81 % 0.00 in
21:26 43.7 °F 38.3 °F 30.28 in Calm     81 % 0.00 in
21:31 43.7 °F 38.3 °F 30.28 in Calm     81 % 0.00 in
21:34 43.7 °F 38.3 °F 30.27 in Calm     81 % 0.00 in
21:38 43.5 °F 37.7 °F 30.27 in Calm     80 % 0.00 in
21:40 43.4 °F 38.0 °F 30.27 in Calm     81 % 0.00 in
21:46 43.3 °F 37.9 °F 30.28 in Calm     81 % 0.00 in
21:48 43.3 °F 37.9 °F 30.28 in Calm     81 % 0.00 in
21:53 43.1 °F 37.7 °F 30.28 in Calm     81 % 0.00 in
21:55 43.0 °F 37.9 °F 30.28 in Calm     82 % 0.00 in
22:00 43.0 °F 37.9 °F 30.28 in Calm     82 % 0.00 in
22:01 43.0 °F 37.9 °F 30.28 in Calm     82 % 0.00 in
22:06 42.8 °F 37.7 °F 30.28 in Calm     82 % 0.00 in
22:11 42.4 °F 37.3 °F 30.29 in Calm     82 % 0.00 in
22:16 42.0 °F 37.2 °F 30.30 in Calm     83 % 0.00 in
22:18 42.0 °F 37.2 °F 30.30 in Calm     83 % 0.00 in
22:21 41.9 °F 37.1 °F 30.30 in Calm     83 % 0.00 in
22:25 41.7 °F 36.9 °F 30.29 in Calm     83 % 0.00 in
22:30 41.8 °F 37.3 °F 30.29 in Calm     84 % 0.00 in
22:31 41.8 °F 37.3 °F 30.29 in Calm     84 % 0.00 in
22:35 42.1 °F 37.6 °F 30.29 in Calm     84 % 0.00 in
22:36 42.2 °F 37.4 °F 30.29 in Calm     83 % 0.00 in
22:41 42.2 °F 37.4 °F 30.29 in Calm     83 % 0.00 in
22:46 42.3 °F 37.5 °F 30.30 in Calm     83 % 0.00 in
22:47 42.3 °F 37.5 °F 30.30 in Calm     83 % 0.00 in
22:52 42.4 °F 37.6 °F 30.30 in Calm     83 % 0.00 in
22:57 42.3 °F 37.2 °F 30.30 in Calm     82 % 0.00 in
22:58 42.3 °F 37.2 °F 30.30 in Calm     82 % 0.00 in
23:03 42.0 °F 36.9 °F 30.30 in Calm     82 % 0.00 in
23:06 41.8 °F 37.0 °F 30.31 in Calm     83 % 0.00 in
23:11 41.3 °F 36.5 °F 30.31 in Calm     83 % 0.00 in
23:15 41.1 °F 36.6 °F 30.31 in Calm     84 % 0.00 in
23:20 41.2 °F 37.0 °F 30.31 in Calm     85 % 0.00 in
23:21 41.2 °F 37.0 °F 30.31 in Calm     85 % 0.00 in
23:24 41.4 °F 37.2 °F 30.31 in Calm     85 % 0.00 in
23:29 41.5 °F 37.0 °F 30.31 in East 1.2 mph   84 % 0.00 in
23:31 41.5 °F 37.0 °F 30.32 in East 1.2 mph 1.2 mph 84 % 0.00 in
23:36 41.5 °F 37.0 °F 30.33 in Calm   0.1 mph 84 % 0.00 in
23:41 41.6 °F 37.1 °F 30.33 in Calm     84 % 0.00 in
23:42 41.5 °F 37.0 °F 30.32 in Calm     84 % 0.00 in
23:43 41.6 °F 37.1 °F 30.33 in Calm     84 % 0.00 in
23:48 41.5 °F 37.0 °F 30.33 in Calm     84 % 0.00 in
23:52 41.3 °F 36.8 °F 30.33 in Calm     84 % 0.00 in
23:57 41.1 °F 36.6 °F 30.32 in Calm     84 % 0.00 in
23:58 41.1 °F 36.6 °F 30.32 in Calm     84 % 0.00 in
Park Place, Exeter, Tulare County, California, USA
Compliments of Weather Underground - 3.5 mb